| time (UTC) | temp C | wind direction | speed KPH | gust KPH | rain 1hr cm | rain 24hr cm | rain mn cm | humidity % | barometer mb |
| 20260505140633 | 11 | 320 | 3.2 | 8.0 | 0.00 | 0.15 | 0.15 | 90 | 1015.3 |
| 20260505140130 | 11 | 339 | 0.0 | 1.6 | 0.00 | 0.15 | 0.15 | 90 | 1015.2 |
| 20260505124543 | 11 | 6 | 0.0 | 1.6 | 0.00 | 0.15 | 0.15 | 91 | 1015.0 |
| 20260505124039 | 11 | 7 | 0.0 | 0.0 | 0.00 | 0.15 | 0.15 | 91 | 1014.8 |
| 20260505123536 | 11 | 359 | 0.0 | 0.0 | 0.00 | 0.15 | 0.15 | 92 | 1014.7 |
| 20260505123032 | 11 | 327 | 1.6 | 1.6 | 0.00 | 0.15 | 0.15 | 92 | 1014.8 |
| 20260505122530 | 11 | 355 | 0.0 | 3.2 | 0.00 | 0.15 | 0.15 | 92 | 1014.7 |
| 20260505122026 | 11 | 299 | 1.6 | 11.3 | 0.00 | 0.15 | 0.15 | 91 | 1014.9 |
| 20260505121523 | 11 | 352 | 0.0 | 3.2 | 0.00 | 0.15 | 0.15 | 92 | 1014.9 |
| 20260505121020 | 11 | 311 | 1.6 | 3.2 | 0.00 | 0.15 | 0.15 | 92 | 1014.9 |
| 20260505120516 | 11 | 316 | 3.2 | 3.2 | 0.00 | 0.15 | 0.15 | 92 | 1014.9 |
| 20260505120011 | 11 | 6 | 0.0 | 0.0 | 0.00 | 0.15 | 0.15 | 92 | 1014.9 |
| 20260505115506 | 11 | 354 | 0.0 | 0.0 | 0.00 | 0.15 | 0.15 | 92 | 1014.9 |
| 20260505115004 | 11 | 356 | 0.0 | 1.6 | 0.00 | 0.15 | 0.15 | 93 | 1014.8 |
| 20260505114501 | 11 | 323 | 3.2 | 3.2 | 0.00 | 0.15 | 0.15 | 93 | 1014.9 |
| 20260505113957 | 11 | 355 | 0.0 | 1.6 | 0.00 | 0.15 | 0.15 | 93 | 1014.8 |
| 20260505113454 | 11 | 318 | 4.8 | 9.7 | 0.00 | 0.15 | 0.15 | 92 | 1014.7 |
| 20260505112950 | 11 | 293 | 8.0 | 9.7 | 0.00 | 0.15 | 0.15 | 93 | 1014.9 |
| 20260505112447 | 11 | 355 | 3.2 | 8.0 | 0.00 | 0.15 | 0.15 | 93 | 1014.7 |
| 20260505111944 | 10 | 313 | 1.6 | 9.7 | 0.00 | 0.15 | 0.15 | 94 | 1014.6 |
| 20260505111443 | 10 | 17 | 0.0 | 3.2 | 0.00 | 0.15 | 0.15 | 94 | 1014.6 |
| 20260505110940 | 10 | 6 | 0.0 | 3.2 | 0.00 | 0.15 | 0.15 | 94 | 1014.6 |
| 20260505110437 | 10 | 230 | 3.2 | 4.8 | 0.00 | 0.15 | 0.15 | 94 | 1014.6 |
| 20260505101908 | 10 | 352 | 0.0 | 1.6 | 0.00 | 0.15 | 0.15 | 94 | 1014.8 |
| 20260505101403 | 10 | 353 | 0.0 | 1.6 | 0.00 | 0.15 | 0.15 | 93 | 1014.9 |
| 20260505100859 | 10 | 337 | 1.6 | 3.2 | 0.00 | 0.15 | 0.15 | 93 | 1015.0 |
| 20260505100355 | 10 | 313 | 1.6 | 3.2 | 0.00 | 0.15 | 0.15 | 94 | 1014.9 |
| 20260505095851 | 10 | 106 | 1.6 | 1.6 | 0.00 | 0.15 | 0.15 | 94 | 1015.0 |
| 20260505095349 | 10 | 2 | 0.0 | 0.0 | 0.00 | 0.15 | 0.15 | 94 | 1015.0 |
| 20260505094845 | 10 | 359 | 0.0 | 3.2 | 0.00 | 0.15 | 0.15 | 94 | 1014.9 |
| 20260505094342 | 10 | 17 | 0.0 | 0.0 | 0.00 | 0.15 | 0.15 | 94 | 1015.0 |
| 20260505093837 | 10 | 356 | 0.0 | 1.6 | 0.00 | 0.15 | 0.15 | 94 | 1015.0 |
| 20260505093335 | 10 | 359 | 0.0 | 0.0 | 0.00 | 0.15 | 0.15 | 94 | 1014.8 |
| 20260505092832 | 10 | 4 | 0.0 | 1.6 | 0.00 | 0.15 | 0.15 | 94 | 1015.0 |
| 20260505092331 | 10 | 7 | 0.0 | 1.6 | 0.00 | 0.15 | 0.15 | 93 | 1015.1 |
| 20260505091827 | 10 | 310 | 1.6 | 9.7 | 0.00 | 0.15 | 0.15 | 94 | 1015.2 |
| 20260505091325 | 11 | 11 | 1.6 | 3.2 | 0.00 | 0.15 | 0.15 | 94 | 1015.0 |
| 20260505090823 | 11 | 104 | 3.2 | 8.0 | 0.18 | 0.15 | 0.15 | 94 | 1015.0 |
| 20260505090321 | 11 | 297 | 4.8 | 4.8 | 0.18 | 0.15 | 0.15 | 94 | 1015.5 |
| 20260505085818 | 11 | 356 | 0.0 | 1.6 | 0.00 | 0.13 | 0.13 | 94 | 1015.5 |
| 20260505085316 | 11 | 327 | 1.6 | 3.2 | 0.00 | 0.13 | 0.13 | 94 | 1015.7 |
| 20260505084813 | 11 | 305 | 3.2 | 8.0 | 0.00 | 0.13 | 0.13 | 94 | 1015.6 |
| 20260505084312 | 11 | 12 | 0.0 | 0.0 | 0.00 | 0.13 | 0.13 | 94 | 1015.6 |
| 20260505083808 | 11 | 353 | 0.0 | 1.6 | 0.00 | 0.13 | 0.13 | 94 | 1015.6 |
| 20260505083306 | 11 | 7 | 0.0 | 3.2 | 0.00 | 0.13 | 0.13 | 94 | 1015.6 |
| 20260505082802 | 11 | 352 | 0.0 | 4.8 | 0.00 | 0.13 | 0.13 | 94 | 1015.6 |
| 20260505082259 | 11 | 13 | 0.0 | 1.6 | 0.00 | 0.13 | 0.13 | 94 | 1015.6 |
| 20260505081755 | 11 | 336 | 3.2 | 4.8 | 0.00 | 0.13 | 0.13 | 94 | 1015.6 |
| 20260505081252 | 11 | 347 | 0.0 | 0.0 | 0.13 | 0.13 | 0.13 | 94 | 1015.4 |
| 20260505080749 | 11 | 305 | 4.8 | 9.7 | 0.13 | 0.13 | 0.13 | 94 | 1015.6 |
| 20260505080244 | 11 | 3 | 1.6 | 8.0 | 0.00 | 0.10 | 0.10 | 94 | 1015.6 |
| 20260505075740 | 11 | 279 | 1.6 | 4.8 | 0.00 | 0.10 | 0.10 | 94 | 1015.6 |
| 20260505075238 | 11 | 309 | 3.2 | 8.0 | 0.18 | 0.10 | 0.10 | 93 | 1015.7 |
| 20260505074735 | 11 | 291 | 6.4 | 17.7 | 0.18 | 0.10 | 0.10 | 93 | 1015.7 |
| 20260505074232 | 11 | 254 | 6.4 | 9.7 | 0.13 | 0.08 | 0.08 | 93 | 1015.3 |
| 20260505073729 | 11 | 31 | 6.4 | 12.9 | 0.13 | 0.08 | 0.08 | 93 | 1015.5 |
| 20260505073227 | 11 | 292 | 6.4 | 8.0 | 0.18 | 0.05 | 0.05 | 94 | 1015.5 |
| 20260505072723 | 11 | 9 | 1.6 | 3.2 | 0.30 | 0.05 | 0.05 | 94 | 1015.8 |
| 20260505072220 | 11 | 273 | 3.2 | 8.0 | 0.13 | 0.03 | 0.03 | 94 | 1015.9 |
| 20260505071715 | 11 | 301 | 3.2 | 8.0 | 0.00 | 0.00 | 0.00 | 94 | 1015.9 |
| 20260505071213 | 11 | 350 | 0.0 | 4.8 | 0.00 | 0.00 | 0.00 | 94 | 1015.9 |
| 20260505070710 | 11 | 304 | 3.2 | 9.7 | 0.00 | 0.00 | 0.00 | 94 | 1016.0 |
| 20260505070206 | 10 | 307 | 4.8 | 4.8 | 0.00 | 0.00 | 0.00 | 94 | 1016.1 |
| 20260505065702 | 10 | 5 | 1.6 | 3.2 | 0.00 | 0.38 | 0.38 | 94 | 1015.9 |
| 20260505065159 | 10 | 353 | 0.0 | 3.2 | 0.00 | 0.38 | 0.38 | 94 | 1015.9 |
| 20260505064656 | 10 | 357 | 3.2 | 3.2 | 0.00 | 0.38 | 0.38 | 94 | 1016.0 |
| 20260505064154 | 10 | 344 | 1.6 | 3.2 | 0.00 | 0.38 | 0.38 | 94 | 1015.7 |
| 20260505063651 | 10 | 2 | 0.0 | 3.2 | 0.00 | 0.38 | 0.38 | 94 | 1015.7 |
| 20260505063147 | 10 | 333 | 4.8 | 4.8 | 0.00 | 0.38 | 0.38 | 94 | 1015.5 |
| 20260505062643 | 10 | 351 | 1.6 | 3.2 | 0.00 | 0.38 | 0.38 | 94 | 1015.4 |
| 20260505062141 | 10 | 334 | 1.6 | 4.8 | 0.00 | 0.38 | 0.38 | 94 | 1015.5 |
| 20260505061638 | 10 | 355 | 1.6 | 3.2 | 0.18 | 0.38 | 0.38 | 94 | 1015.5 |
| 20260505061136 | 10 | 350 | 1.6 | 3.2 | 0.18 | 0.38 | 0.38 | 94 | 1015.7 |
| 20260505060633 | 10 | 336 | 3.2 | 3.2 | 0.13 | 0.36 | 0.36 | 93 | 1015.8 |
| 20260505060130 | 10 | 350 | 1.6 | 3.2 | 0.13 | 0.36 | 0.36 | 93 | 1015.9 |
| 20260505055625 | 10 | 7 | 0.0 | 3.2 | 0.00 | 0.33 | 0.33 | 93 | 1015.6 |
| 20260505055122 | 10 | 342 | 1.6 | 3.2 | 0.18 | 0.33 | 0.33 | 93 | 1015.6 |
| 20260505054620 | 10 | 330 | 1.6 | 1.6 | 0.18 | 0.33 | 0.33 | 93 | 1015.8 |
| 20260505054118 | 10 | 357 | 3.2 | 4.8 | 0.00 | 0.30 | 0.30 | 93 | 1015.8 |
| 20260505053614 | 10 | 311 | 3.2 | 4.8 | 0.18 | 0.30 | 0.30 | 93 | 1015.8 |
| 20260505053111 | 10 | 311 | 4.8 | 4.8 | 0.18 | 0.30 | 0.30 | 92 | 1015.8 |
| 20260505052608 | 10 | 334 | 3.2 | 9.7 | 0.13 | 0.28 | 0.28 | 92 | 1015.8 |
| 20260505052106 | 10 | 12 | 1.6 | 4.8 | 0.13 | 0.28 | 0.28 | 92 | 1015.7 |
| 20260505051602 | 10 | 333 | 3.2 | 4.8 | 0.00 | 0.25 | 0.25 | 92 | 1015.6 |
| 20260505051101 | 10 | 359 | 1.6 | 3.2 | 0.00 | 0.25 | 0.25 | 92 | 1015.7 |
| 20260505050558 | 10 | 330 | 1.6 | 4.8 | 0.18 | 0.25 | 0.25 | 91 | 1015.9 |
| 20260505041526 | 11 | 358 | 0.0 | 1.6 | 0.13 | 0.08 | 0.08 | 90 | 1016.6 |
| 20260505041023 | 11 | 327 | 3.2 | 12.9 | 0.13 | 0.08 | 0.08 | 89 | 1016.5 |
| 20260505040520 | 11 | 326 | 3.2 | 8.0 | 0.00 | 0.05 | 0.05 | 88 | 1016.5 |
| 20260505040018 | 11 | 338 | 1.6 | 3.2 | 0.00 | 0.05 | 0.05 | 88 | 1016.3 |
| 20260505035514 | 11 | 19 | 1.6 | 3.2 | 0.00 | 0.05 | 0.05 | 88 | 1016.2 |
| 20260505035011 | 11 | 355 | 0.0 | 1.6 | 0.00 | 0.05 | 0.05 | 89 | 1015.8 |
| 20260505034507 | 11 | 23 | 0.0 | 0.0 | 0.00 | 0.05 | 0.05 | 88 | 1015.6 |
| 20260505034004 | 11 | 27 | 0.0 | 0.0 | 0.18 | 0.05 | 0.05 | 88 | 1015.5 |
| 20260505033501 | 11 | 2 | 0.0 | 0.0 | 0.18 | 0.05 | 0.05 | 88 | 1015.3 |
| 20260505032959 | 11 | 355 | 0.0 | 3.2 | 0.00 | 0.03 | 0.03 | 87 | 1015.1 |
| 20260505032456 | 11 | 3 | 1.6 | 8.0 | 0.00 | 0.03 | 0.03 | 87 | 1015.1 |
| 20260505031952 | 11 | 9 | 0.0 | 1.6 | 0.00 | 0.03 | 0.03 | 88 | 1015.0 |
| 20260505031449 | 11 | 286 | 1.6 | 12.9 | 0.00 | 0.03 | 0.03 | 87 | 1015.0 |
| 20260505030946 | 11 | 339 | 4.8 | 8.0 | 0.13 | 0.03 | 0.03 | 88 | 1014.8 |
| 20260505030442 | 11 | 270 | 8.0 | 12.9 | 0.13 | 0.03 | 0.03 | 87 | 1015.0 |
| 20260505025937 | 11 | 313 | 6.4 | 11.3 | 0.00 | 0.00 | 0.00 | 87 | 1015.3 |
| 20260505025435 | 11 | 308 | 4.8 | 11.3 | 0.00 | 0.00 | 0.00 | 86 | 1015.4 |
| 20260505024934 | 12 | 298 | 6.4 | 9.7 | 0.00 | 0.00 | 0.00 | 86 | 1015.4 |
| 20260505024431 | 12 | 339 | 1.6 | 12.9 | 0.00 | 0.00 | 0.00 | 86 | 1015.4 |
| 20260505023928 | 12 | 282 | 1.6 | 14.5 | 0.00 | 0.00 | 0.00 | 86 | 1015.5 |
| 20260505023425 | 12 | 295 | 4.8 | 8.0 | 0.00 | 0.00 | 0.00 | 87 | 1015.2 |
| 20260505022922 | 12 | 341 | 3.2 | 8.0 | 0.00 | 0.00 | 0.00 | 87 | 1015.5 |
| 20260505022420 | 12 | 347 | 1.6 | 16.1 | 0.00 | 0.00 | 0.00 | 87 | 1015.3 |
| 20260505021917 | 12 | 278 | 3.2 | 8.0 | 0.00 | 0.00 | 0.00 | 87 | 1015.2 |
| 20260505021413 | 12 | 297 | 4.8 | 8.0 | 0.00 | 0.00 | 0.00 | 87 | 1015.1 |
| 20260505020909 | 12 | 321 | 6.4 | 9.7 | 0.00 | 0.00 | 0.00 | 86 | 1015.2 |
| 20260505020404 | 12 | 271 | 8.0 | 16.1 | 0.00 | 0.00 | 0.00 | 86 | 1015.1 |
| 20260505015901 | 12 | 316 | 4.8 | 11.3 | 0.00 | 0.00 | 0.00 | 87 | 1015.3 |
| 20260505015359 | 12 | 339 | 4.8 | 12.9 | 0.00 | 0.00 | 0.00 | 87 | 1015.2 |
| 20260505014856 | 12 | 296 | 4.8 | 11.3 | 0.00 | 0.00 | 0.00 | 87 | 1015.3 |
| 20260505014352 | 12 | 283 | 9.7 | 12.9 | 0.00 | 0.00 | 0.00 | 87 | 1015.4 |
| 20260505013849 | 12 | 326 | 4.8 | 20.9 | 0.00 | 0.00 | 0.00 | 86 | 1015.7 |
| 20260505013346 | 12 | 266 | 3.2 | 9.7 | 0.00 | 0.00 | 0.00 | 87 | 1015.6 |
| 20260505012845 | 12 | 231 | 6.4 | 12.9 | 0.00 | 0.00 | 0.00 | 86 | 1015.6 |
| 20260505012343 | 12 | 276 | 9.7 | 16.1 | 0.00 | 0.00 | 0.00 | 86 | 1015.5 |
| 20260505011838 | 12 | 320 | 4.8 | 11.3 | 0.00 | 0.00 | 0.00 | 86 | 1015.5 |
| 20260505011335 | 13 | 318 | 6.4 | 11.3 | 0.00 | 0.00 | 0.00 | 86 | 1015.6 |
| 20260505010831 | 13 | 348 | 3.2 | 4.8 | 0.00 | 0.00 | 0.00 | 86 | 1015.7 |
| 20260505010327 | 13 | 254 | 4.8 | 9.7 | 0.00 | 0.00 | 0.00 | 86 | 1015.6 |
| 20260505005823 | 13 | 298 | 3.2 | 9.7 | 0.00 | 0.00 | 0.00 | 86 | 1015.5 |
| 20260505005321 | 13 | 291 | 3.2 | 11.3 | 0.00 | 0.00 | 0.00 | 86 | 1015.8 |
| 20260505004818 | 13 | 282 | 4.8 | 14.5 | 0.00 | 0.00 | 0.00 | 86 | 1015.6 |
| 20260505004314 | 13 | 269 | 8.0 | 12.9 | 0.00 | 0.00 | 0.00 | 85 | 1015.9 |
| 20260505003812 | 13 | 296 | 6.4 | 14.5 | 0.00 | 0.00 | 0.00 | 85 | 1015.7 |
| 20260505003309 | 13 | 280 | 8.0 | 12.9 | 0.00 | 0.00 | 0.00 | 85 | 1015.6 |
| 20260505002805 | 13 | 313 | 4.8 | 11.3 | 0.00 | 0.00 | 0.00 | 85 | 1015.7 |
| 20260505002304 | 13 | 278 | 11.3 | 12.9 | 0.00 | 0.00 | 0.00 | 85 | 1015.9 |
| 20260505001800 | 13 | 311 | 8.0 | 16.1 | 0.00 | 0.00 | 0.00 | 85 | 1015.6 |
| 20260505001257 | 13 | 2 | 3.2 | 4.8 | 0.00 | 0.00 | 0.00 | 85 | 1015.7 |
| 20260505000754 | 13 | 324 | 4.8 | 12.9 | 0.00 | 0.00 | 0.00 | 86 | 1015.4 |
| 20260505000252 | 13 | 238 | 8.0 | 11.3 | 0.00 | 0.00 | 0.00 | 85 | 1015.3 |
| 20260504235748 | 13 | 296 | 4.8 | 8.0 | 0.00 | 0.00 | 0.00 | 86 | 1015.5 |
| 20260504235244 | 14 | 312 | 12.9 | 16.1 | 0.00 | 0.00 | 0.00 | 84 | 1015.6 |
| 20260504234742 | 15 | 304 | 4.8 | 8.0 | 0.00 | 0.00 | 0.00 | 84 | 1015.5 |
| 20260504234239 | 15 | 17 | 4.8 | 8.0 | 0.00 | 0.00 | 0.00 | 83 | 1015.5 |
| 20260504233735 | 15 | 286 | 6.4 | 16.1 | 0.00 | 0.00 | 0.00 | 82 | 1015.7 |
| 20260504233231 | 15 | 306 | 3.2 | 11.3 | 0.00 | 0.00 | 0.00 | 81 | 1015.5 |
| 20260504232729 | 15 | 302 | 8.0 | 11.3 | 0.00 | 0.00 | 0.00 | 80 | 1015.2 |
| 20260504232225 | 15 | 295 | 11.3 | 16.1 | 0.00 | 0.00 | 0.00 | 80 | 1015.1 |
| 20260504231722 | 15 | 312 | 9.7 | 11.3 | 0.00 | 0.00 | 0.00 | 79 | 1015.3 |
| 20260504231218 | 15 | 355 | 4.8 | 12.9 | 0.00 | 0.00 | 0.00 | 79 | 1015.2 |
| 20260504230714 | 15 | 294 | 4.8 | 9.7 | 0.00 | 0.00 | 0.00 | 78 | 1015.4 |
| 20260504230213 | 15 | 296 | 11.3 | 11.3 | 0.00 | 0.00 | 0.00 | 78 | 1015.4 |
| 20260504225712 | 15 | 303 | 1.6 | 11.3 | 0.00 | 0.00 | 0.00 | 78 | 1015.3 |
| 20260504225208 | 15 | 303 | 11.3 | 14.5 | 0.00 | 0.00 | 0.00 | 77 | 1015.3 |
| 20260504224705 | 16 | 281 | 14.5 | 22.5 | 0.00 | 0.00 | 0.00 | 76 | 1015.4 |
| 20260504224202 | 16 | 294 | 11.3 | 14.5 | 0.00 | 0.00 | 0.00 | 75 | 1015.5 |
| 20260504223658 | 16 | 309 | 3.2 | 14.5 | 0.00 | 0.00 | 0.00 | 75 | 1015.6 |
| 20260504223154 | 16 | 331 | 3.2 | 11.3 | 0.00 | 0.00 | 0.00 | 74 | 1015.4 |
| 20260504222651 | 16 | 294 | 4.8 | 4.8 | 0.00 | 0.00 | 0.00 | 73 | 1015.6 |
| 20260504222148 | 16 | 279 | 6.4 | 9.7 | 0.00 | 0.00 | 0.00 | 72 | 1015.6 |
| 20260504221645 | 16 | 256 | 8.0 | 12.9 | 0.00 | 0.00 | 0.00 | 73 | 1015.6 |
| 20260504221143 | 16 | 286 | 4.8 | 9.7 | 0.00 | 0.00 | 0.00 | 72 | 1015.5 |
| 20260504220638 | 16 | 273 | 12.9 | 17.7 | 0.00 | 0.00 | 0.00 | 71 | 1015.7 |
| 20260504220137 | 16 | 321 | 1.6 | 9.7 | 0.00 | 0.00 | 0.00 | 75 | 1015.5 |
| 20260504215632 | 17 | 215 | 11.3 | 17.7 | 0.00 | 0.00 | 0.00 | 74 | 1015.5 |
| 20260504215130 | 17 | 198 | 8.0 | 9.7 | 0.00 | 0.00 | 0.00 | 73 | 1015.4 |
| 20260504214626 | 17 | 192 | 9.7 | 12.9 | 0.00 | 0.00 | 0.00 | 73 | 1015.4 |
| 20260504214122 | 17 | 346 | 1.6 | 4.8 | 0.00 | 0.00 | 0.00 | 74 | 1015.3 |
| 20260504213619 | 17 | 299 | 3.2 | 8.0 | 0.00 | 0.00 | 0.00 | 72 | 1015.6 |
| 20260504213116 | 16 | 304 | 4.8 | 8.0 | 0.00 | 0.00 | 0.00 | 73 | 1015.4 |
| 20260504212612 | 17 | 354 | 1.6 | 4.8 | 0.00 | 0.00 | 0.00 | 72 | 1015.6 |
| 20260504212109 | 16 | 323 | 3.2 | 12.9 | 0.00 | 0.00 | 0.00 | 73 | 1015.5 |
| 20260504211606 | 17 | 332 | 0.0 | 1.6 | 0.00 | 0.00 | 0.00 | 72 | 1015.4 |
| 20260504211103 | 17 | 33 | 1.6 | 8.0 | 0.00 | 0.00 | 0.00 | 73 | 1015.4 |
| 20260504210600 | 17 | 233 | 1.6 | 4.8 | 0.00 | 0.00 | 0.00 | 72 | 1015.5 |
| 20260504210056 | 16 | 325 | 1.6 | 11.3 | 0.00 | 0.00 | 0.00 | 72 | 1015.8 |
| 20260504205554 | 17 | 283 | 3.2 | 3.2 | 0.00 | 0.00 | 0.00 | 72 | 1016.0 |
| 20260504205052 | 16 | 343 | 0.0 | 9.7 | 0.00 | 0.00 | 0.00 | 73 | 1015.9 |
| 20260504204550 | 16 | 291 | 0.0 | 3.2 | 0.00 | 0.00 | 0.00 | 74 | 1015.8 |
| 20260504204049 | 16 | 181 | 4.8 | 9.7 | 0.00 | 0.00 | 0.00 | 75 | 1015.6 |
| 20260504203546 | 17 | 247 | 3.2 | 8.0 | 0.00 | 0.00 | 0.00 | 72 | 1015.8 |
| 20260504203044 | 16 | 5 | 4.8 | 14.5 | 0.00 | 0.00 | 0.00 | 74 | 1015.7 |
| 20260504202539 | 17 | 326 | 0.0 | 3.2 | 0.00 | 0.00 | 0.00 | 69 | 1015.6 |
| 20260504202036 | 16 | 349 | 3.2 | 17.7 | 0.00 | 0.00 | 0.00 | 66 | 1015.6 |
| 20260504201533 | 16 | 268 | 8.0 | 16.1 | 0.00 | 0.00 | 0.00 | 68 | 1015.5 |
| 20260504201031 | 16 | 324 | 3.2 | 12.9 | 0.00 | 0.00 | 0.00 | 69 | 1015.5 |
| 20260504200527 | 16 | 307 | 9.7 | 12.9 | 0.00 | 0.00 | 0.00 | 70 | 1015.6 |
| 20260504200024 | 16 | 24 | 0.0 | 4.8 | 0.00 | 0.00 | 0.00 | 69 | 1015.7 |
| 20260504195520 | 16 | 287 | 4.8 | 11.3 | 0.00 | 0.00 | 0.00 | 70 | 1015.8 |
| 20260504195017 | 16 | 254 | 4.8 | 11.3 | 0.00 | 0.00 | 0.00 | 69 | 1015.7 |
| 20260504194513 | 17 | 313 | 0.0 | 3.2 | 0.00 | 0.00 | 0.00 | 69 | 1015.7 |
| 20260504194009 | 17 | 341 | 3.2 | 9.7 | 0.00 | 0.00 | 0.00 | 69 | 1015.5 |
| 20260504193506 | 16 | 316 | 4.8 | 8.0 | 0.00 | 0.00 | 0.00 | 69 | 1015.9 |
| 20260504193005 | 16 | 313 | 1.6 | 8.0 | 0.00 | 0.00 | 0.00 | 70 | 1015.6 |
| 20260504192502 | 16 | 220 | 1.6 | 8.0 | 0.00 | 0.00 | 0.00 | 69 | 1015.5 |
| 20260504192000 | 16 | 282 | 8.0 | 12.9 | 0.00 | 0.00 | 0.00 | 69 | 1015.6 |
| 20260504191458 | 17 | 306 | 3.2 | 4.8 | 0.00 | 0.00 | 0.00 | 68 | 1015.8 |
| 20260504190953 | 17 | 345 | 0.0 | 0.0 | 0.00 | 0.00 | 0.00 | 70 | 1015.6 |
| 20260504190449 | 17 | 51 | 0.0 | 0.0 | 0.00 | 0.00 | 0.00 | 69 | 1015.6 |
| 20260504185946 | 17 | 31 | 0.0 | 1.6 | 0.00 | 0.00 | 0.00 | 68 | 1015.8 |
| 20260504185443 | 17 | 343 | 1.6 | 3.2 | 0.00 | 0.00 | 0.00 | 69 | 1015.8 |
| 20260504184939 | 17 | 346 | 1.6 | 3.2 | 0.00 | 0.00 | 0.00 | 69 | 1015.8 |
| 20260504184435 | 17 | 337 | 1.6 | 4.8 | 0.00 | 0.00 | 0.00 | 68 | 1015.7 |
| 20260504183931 | 17 | 353 | 1.6 | 4.8 | 0.00 | 0.00 | 0.00 | 69 | 1015.9 |
| 20260504183428 | 17 | 330 | 1.6 | 3.2 | 0.00 | 0.00 | 0.00 | 70 | 1015.8 |
| 20260504182926 | 17 | 337 | 1.6 | 3.2 | 0.00 | 0.00 | 0.00 | 69 | 1015.7 |
| 20260504182423 | 16 | 12 | 1.6 | 4.8 | 0.00 | 0.00 | 0.00 | 71 | 1015.7 |
| 20260504181920 | 16 | 315 | 1.6 | 8.0 | 0.00 | 0.00 | 0.00 | 70 | 1015.8 |
| 20260504181417 | 16 | 358 | 0.0 | 0.0 | 0.00 | 0.00 | 0.00 | 72 | 1015.7 |
| 20260504180916 | 16 | 37 | 0.0 | 3.2 | 0.00 | 0.00 | 0.00 | 70 | 1015.7 |
| 20260504180414 | 16 | 3 | 0.0 | 3.2 | 0.00 | 0.00 | 0.00 | 70 | 1015.7 |
| 20260504175912 | 16 | 328 | 1.6 | 3.2 | 0.00 | 0.00 | 0.00 | 71 | 1015.8 |
| 20260504175409 | 16 | 18 | 0.0 | 1.6 | 0.00 | 0.00 | 0.00 | 72 | 1015.8 |
| 20260504174907 | 17 | 79 | 0.0 | 4.8 | 0.00 | 0.00 | 0.00 | 71 | 1015.6 |
| 20260504174404 | 17 | 14 | 0.0 | 1.6 | 0.00 | 0.00 | 0.00 | 72 | 1015.4 |
| 20260504173901 | 17 | 345 | 1.6 | 3.2 | 0.00 | 0.00 | 0.00 | 69 | 1015.5 |
| 20260504173357 | 17 | 27 | 0.0 | 1.6 | 0.00 | 0.00 | 0.00 | 70 | 1015.5 |
| 20260504172855 | 17 | 273 | 4.8 | 12.9 | 0.00 | 0.00 | 0.00 | 72 | 1015.4 |
| 20260504172351 | 17 | 8 | 0.0 | 4.8 | 0.00 | 0.00 | 0.00 | 73 | 1015.5 |
| 20260504171847 | 16 | 311 | 3.2 | 4.8 | 0.00 | 0.00 | 0.00 | 75 | 1015.5 |
| 20260504171344 | 15 | 296 | 1.6 | 4.8 | 0.00 | 0.00 | 0.00 | 78 | 1015.3 |
| 20260504170842 | 15 | 320 | 3.2 | 3.2 | 0.00 | 0.00 | 0.00 | 80 | 1015.5 |
| 20260504170338 | 15 | 305 | 6.4 | 9.7 | 0.00 | 0.00 | 0.00 | 80 | 1015.2 |
| 20260504160256 | 14 | 296 | 4.8 | 4.8 | 0.00 | 0.00 | 0.00 | 84 | 1015.6 |
| 20260504150722 | 12 | 350 | 0.0 | 1.6 | 0.00 | 0.00 | 0.00 | 88 | 1015.3 |
| 20260504150219 | 11 | 354 | 1.6 | 1.6 | 0.00 | 0.00 | 0.00 | 89 | 1015.3 |